Airfield :
LOGIN :

Register | Disclaimer

   EN    FR    IT 

 










Legend :    VFR   Marginal VFR   IFR   Intensive IFR   Very Intensive IFR
Visi :
Ceiling :
>= 8 km
>= 3000ft
5 to 8 km
1000 to 3000 ft
1500m to 5 km
500 to 1000 ft
800 to 1500m
200 to 500 ft
< 800m
< 200 ft
Symbols :   Thunderstorms  Fog  Heavy snow  Heavy precipitations  Wind > 20 kt
SIGMETs :     Misc.  Thunderstorms  Icing  Turbulence  Mountain Waves  Volcanic Ashes






- Airport Elevation : 1300 ft
- IATA code : LIG


LFBL - Limoges

CURRENT METAR :
  • 200100Z AUTO 08006KT 9999 ///TCU 13/11 Q1003 TEMPO 3000 RA OVC003

EXPIRED METARs :
  • 200030Z AUTO 07009KT 9999 ///TCU 13/11 Q1003 TEMPO 3000 RA OVC003
  • 200000Z AUTO 06007KT 9999 -RA FEW026/// SCT078/// OVC092/// ///TCU 13/11 Q1003 BECMG BKN012
  • 192330Z AUTO 06006KT 9999 BKN028 OVC100 13/11 Q1004 BECMG BKN012
  • 192300Z AUTO 06006KT 9999 SCT030 BKN100 OVC120 13/11 Q1004 BECMG BKN014
  • 192230Z AUTO 04005KT 9999 OVC034 13/12 Q1004 BECMG BKN014

TAF TAF LFBL
Valid from the 20 at 00:00 until the 21 at 00:00 UTC


192300Z 2000/2024 02004KT 9999 SCT028 BKN040
BECMG 2000/2002 BKN012
TEMPO 2002/2014 3000 RA OVC003
BECMG 2014/2016 20015G25KT BKN030
ATIS : +33 5 55 48 40 37



MET'MAP, your aeronautical weather chart ! - Copyright ORBIFLY December 2007 - Disclaimer

ORBIFLY MET'MAP TEAM :

Programming & Development : Alexandra Zaïnal
Concept & Development : Baudouin d'Aumeries
Co-Development & Prog : Marc-Olivier Méhu
Technical & hardware support : Manuel Goepfert

Contact : metmap@orbifly.com




SOURCES & CREDITS :

   NOAA